Time;durP1;ratioP1;P1;durP2;ratioP2;P2;SDS_P1;SDS_P2;PMS_P1;PMS_P2;Temp;Humidity;BMP_temperature;BMP_pressure;BME280_temperature;BME280_humidity;BME280_pressure;Samples;Min_cycle;Max_cycle;Signal;HPM_P1;HPM_P2
2021/04/11 00:00:59;;;;;;;;;4.50;3.00;;;;;;;;3512074;40;114404;-79
2021/04/11 00:03:27;;;;;;;;;7.75;6.50;;;;;;;;3514714;40;112037;-78
2021/04/11 00:05:54;;;;;;;;;8.00;8.00;;;;;;;;3514495;39;113297;-78
2021/04/11 00:08:23;;;;;;;;;9.25;7.00;;;;;;;;3516690;40;113790;-78
2021/04/11 00:10:50;;;;;;;;;5.25;5.25;;;;;;;;3514642;39;111888;-78
2021/04/11 00:13:18;;;;;;;;;8.25;8.00;;;;;;;;3514016;40;114159;-78
2021/04/11 00:15:44;;;;;;;;;8.00;6.50;;;;;;;;3514502;40;111823;-77
2021/04/11 00:18:11;;;;;;;;;3.25;3.25;;;;;;;;3514403;40;113982;-78
2021/04/11 00:20:37;;;;;;;;;6.00;6.00;;;;;;;;3514011;39;113750;-76
2021/04/11 00:23:04;;;;;;;;;8.00;8.00;;;;;;;;3514421;40;111861;-77
2021/04/11 00:25:31;;;;;;;;;7.25;7.25;;;;;;;;3515072;40;114044;-77
2021/04/11 00:27:57;;;;;;;;;8.00;7.00;;;;;;;;3513553;40;112775;-77
2021/04/11 00:30:24;;;;;;;;;9.00;7.00;;;;;;;;3521364;40;112409;-77
2021/04/11 00:32:50;;;;;;;;;8.00;7.00;;;;;;;;3517295;39;113050;-76
2021/04/11 00:35:18;;;;;;;;;9.00;8.75;;;;;;;;3509452;40;112430;-75
2021/04/11 00:37:44;;;;;;;;;8.75;7.75;;;;;;;;3513793;40;113343;-77
2021/04/11 00:40:11;;;;;;;;;8.00;6.50;;;;;;;;3513686;40;114293;-76
2021/04/11 00:42:40;;;;;;;;;8.00;7.00;;;;;;;;3514340;40;114467;-79
2021/04/11 00:45:09;;;;;;;;;7.00;7.00;;;;;;;;3514294;39;113280;-76
2021/04/11 00:47:36;;;;;;;;;9.00;8.50;;;;;;;;3513555;40;113984;-76
2021/04/11 00:50:03;;;;;;;;;6.75;6.75;;;;;;;;3512483;40;112607;-77
2021/04/11 00:52:30;;;;;;;;;6.50;6.50;;;;;;;;3516647;40;113755;-76
2021/04/11 00:54:56;;;;;;;;;7.00;7.00;;;;;;;;3512575;40;111946;-79
2021/04/11 00:57:23;;;;;;;;;7.00;6.25;;;;;;;;3515760;40;113495;-78
2021/04/11 00:59:49;;;;;;;;;7.00;6.50;;;;;;;;3513953;39;115060;-76
2021/04/11 01:02:15;;;;;;;;;7.00;5.50;;;;;;;;3514409;40;112694;-77
2021/04/11 01:04:41;;;;;;;;;8.50;8.00;;;;;;;;3511631;40;113252;-75
2021/04/11 01:07:09;;;;;;;;;8.25;7.00;;;;;;;;3510293;40;114446;-75
2021/04/11 01:09:38;;;;;;;;;8.00;8.00;;;;;;;;3514275;40;112748;-78
2021/04/11 01:12:07;;;;;;;;;8.00;8.00;;;;;;;;3514201;39;113686;-77
2021/04/11 01:14:33;;;;;;;;;9.25;7.25;;;;;;;;3516466;39;114787;-75
2021/04/11 01:16:59;;;;;;;;;10.75;9.00;;;;;;;;3514080;40;114007;-75
2021/04/11 01:19:28;;;;;;;;;8.00;8.00;;;;;;;;3513789;40;114298;-75
2021/04/11 01:21:59;;;;;;;;;7.75;7.75;;;;;;;;3514076;40;112106;-79
2021/04/11 01:24:33;;;;;;;;;8.00;8.00;;;;;;;;3514153;40;113170;-76
2021/04/11 01:27:00;;;;;;;;;4.00;4.00;;;;;;;;3511995;40;113918;-77
2021/04/11 01:29:26;;;;;;;;;9.50;8.00;;;;;;;;3511888;40;111880;-74
2021/04/11 01:31:52;;;;;;;;;8.00;7.00;;;;;;;;3513971;40;113212;-75
2021/04/11 01:34:18;;;;;;;;;8.50;8.25;;;;;;;;3513865;39;114002;-77
2021/04/11 01:36:47;;;;;;;;;9.00;8.25;;;;;;;;3516843;40;112103;-77
2021/04/11 01:39:16;;;;;;;;;8.00;8.00;;;;;;;;3513661;40;113923;-74
2021/04/11 01:41:44;;;;;;;;;8.00;7.00;;;;;;;;3514033;40;111753;-76
2021/04/11 01:44:11;;;;;;;;;12.75;7.00;;;;;;;;3514164;39;113320;-75
2021/04/11 01:46:38;;;;;;;;;7.50;7.50;;;;;;;;3513559;40;114218;-75
2021/04/11 01:49:04;;;;;;;;;8.00;8.00;;;;;;;;3513859;40;112444;-75
2021/04/11 01:51:33;;;;;;;;;9.00;9.00;;;;;;;;3509559;40;114059;-76
2021/04/11 01:54:00;;;;;;;;;8.00;7.50;;;;;;;;3511827;40;113995;-75
2021/04/11 01:56:26;;;;;;;;;9.25;8.00;;;;;;;;3514922;40;112386;-76
2021/04/11 01:58:54;;;;;;;;;7.75;7.00;;;;;;;;3513476;40;113907;-76
2021/04/11 02:01:22;;;;;;;;;10.00;9.00;;;;;;;;3514101;40;111867;-76
2021/04/11 02:03:51;;;;;;;;;8.00;8.00;;;;;;;;3513940;40;113697;-77
2021/04/11 02:06:17;;;;;;;;;9.25;8.50;;;;;;;;3513726;40;113984;-74
2021/04/11 02:08:46;;;;;;;;;8.25;7.75;;;;;;;;3514149;40;112200;-74
2021/04/11 02:11:12;;;;;;;;;13.25;9.50;;;;;;;;3513921;40;113257;-75
2021/04/11 02:13:39;;;;;;;;;8.75;8.00;;;;;;;;3513559;39;113828;-75
2021/04/11 02:16:07;;;;;;;;;7.00;7.00;;;;;;;;3513980;40;111892;-74
2021/04/11 02:18:34;;;;;;;;;8.00;7.00;;;;;;;;3516293;39;113057;-76
2021/04/11 02:21:01;;;;;;;;;9.50;8.00;;;;;;;;3514173;40;112620;-75
2021/04/11 02:23:29;;;;;;;;;9.75;7.25;;;;;;;;3514765;40;113347;-75
2021/04/11 02:25:56;;;;;;;;;6.25;6.00;;;;;;;;3511611;40;115153;-75
2021/04/11 02:28:24;;;;;;;;;8.00;7.50;;;;;;;;3513823;40;112050;-76
2021/04/11 02:30:51;;;;;;;;;5.00;5.00;;;;;;;;3514057;39;113480;-76
2021/04/11 02:33:18;;;;;;;;;7.00;7.00;;;;;;;;3513316;40;113958;-76
2021/04/11 02:35:46;;;;;;;;;8.50;7.00;;;;;;;;3509518;40;112991;-76
2021/04/11 02:38:13;;;;;;;;;8.25;8.00;;;;;;;;3513996;39;113075;-75
2021/04/11 02:40:45;;;;;;;;;7.75;7.75;;;;;;;;3515747;40;114052;-75
2021/04/11 02:43:12;;;;;;;;;11.25;8.75;;;;;;;;3514017;39;113472;-76
2021/04/11 02:45:39;;;;;;;;;8.00;8.00;;;;;;;;3513208;40;113646;-76
2021/04/11 02:48:08;;;;;;;;;7.75;7.00;;;;;;;;3513573;40;111976;-76
2021/04/11 02:50:37;;;;;;;;;8.25;7.25;;;;;;;;3513694;40;113145;-75
2021/04/11 02:53:04;;;;;;;;;9.00;8.00;;;;;;;;3513210;39;113782;-76
2021/04/11 02:55:32;;;;;;;;;7.00;6.00;;;;;;;;3513745;40;111869;-76
2021/04/11 02:57:58;;;;;;;;;8.25;8.25;;;;;;;;3513772;40;113836;-76
2021/04/11 03:00:25;;;;;;;;;12.50;9.00;;;;;;;;3513158;40;113691;-75
2021/04/11 03:02:51;;;;;;;;;8.25;7.25;;;;;;;;3516048;40;111968;-76
2021/04/11 03:05:20;;;;;;;;;7.50;6.75;;;;;;;;3513225;40;113905;-75
2021/04/11 03:07:48;;;;;;;;;10.00;6.00;;;;;;;;3513474;39;112358;-75
2021/04/11 03:10:16;;;;;;;;;8.00;8.00;;;;;;;;3508420;40;113260;-75
2021/04/11 03:12:42;;;;;;;;;8.50;8.50;;;;;;;;3510437;40;113895;-74
2021/04/11 03:15:10;;;;;;;;;8.25;8.25;;;;;;;;3513389;40;111889;-74
2021/04/11 03:17:36;;;;;;;;;7.25;6.50;;;;;;;;3513680;40;113216;-76
2021/04/11 03:20:05;;;;;;;;;9.00;8.50;;;;;;;;3512978;40;113806;-76
2021/04/11 03:22:32;;;;;;;;;12.25;9.50;;;;;;;;3513596;40;111916;-76
2021/04/11 03:24:59;;;;;;;;;9.25;9.25;;;;;;;;3515667;40;113247;-76
2021/04/11 03:27:28;;;;;;;;;9.25;8.00;;;;;;;;3513688;40;112088;-74
2021/04/11 03:29:57;;;;;;;;;11.00;10.00;;;;;;;;3511644;40;114396;-74
2021/04/11 03:32:26;;;;;;;;;8.50;8.50;;;;;;;;3513232;40;113710;-75
2021/04/11 03:34:54;;;;;;;;;9.00;9.00;;;;;;;;3513146;40;112108;-75
2021/04/11 03:37:21;;;;;;;;;7.00;7.00;;;;;;;;3513519;40;113682;-75
2021/04/11 03:39:48;;;;;;;;;10.25;9.00;;;;;;;;3512932;40;114285;-75
2021/04/11 03:42:16;;;;;;;;;9.75;9.00;;;;;;;;3513279;40;111957;-75
2021/04/11 03:44:42;;;;;;;;;9.50;9.50;;;;;;;;3513244;40;114113;-76
2021/04/11 03:47:11;;;;;;;;;10.75;10.50;;;;;;;;3515287;40;112154;-76
2021/04/11 03:49:41;;;;;;;;;8.75;6.25;;;;;;;;3513422;40;113266;-76
2021/04/11 03:52:10;;;;;;;;;10.25;8.75;;;;;;;;3512707;40;114505;-75
2021/04/11 03:54:37;;;;;;;;;15.25;11.25;;;;;;;;3513940;40;112135;-75
2021/04/11 03:57:07;;;;;;;;;12.50;10.25;;;;;;;;3515116;40;113172;-74
2021/04/11 03:59:36;;;;;;;;;12.25;11.25;;;;;;;;3514820;40;114176;-73
2021/04/11 04:02:05;;;;;;;;;9.00;9.00;;;;;;;;3513186;40;112472;-74
2021/04/11 04:04:32;;;;;;;;;10.75;10.75;;;;;;;;3512980;40;113330;-75
2021/04/11 04:07:10;;;;;;;;;9.75;9.75;;;;;;;;3515126;40;114789;-74
2021/04/11 04:09:37;;;;;;;;;9.00;9.00;;;;;;;;3513063;40;114006;-76
2021/04/11 04:12:24;;;;;;;;;10.50;10.00;;;;;;;;3508155;40;113954;-74
2021/04/11 04:15:02;;;;;;;;;14.00;10.00;;;;;;;;3494063;40;112156;-75
2021/04/11 04:17:31;;;;;;;;;9.00;9.00;;;;;;;;3512796;40;113460;-75
2021/04/11 04:20:02;;;;;;;;;12.00;11.50;;;;;;;;3513925;39;114033;-74
2021/04/11 04:22:35;;;;;;;;;10.25;10.25;;;;;;;;3512904;40;112134;-75
2021/04/11 04:25:06;;;;;;;;;10.75;9.00;;;;;;;;3514444;39;113453;-75
2021/04/11 04:27:37;;;;;;;;;13.25;12.00;;;;;;;;3509509;40;115003;-75
2021/04/11 04:30:09;;;;;;;;;9.00;9.00;;;;;;;;3515783;40;111983;-73
2021/04/11 04:32:43;;;;;;;;;11.75;11.75;;;;;;;;3513292;39;114471;-75
2021/04/11 04:35:17;;;;;;;;;8.75;7.50;;;;;;;;3511815;40;111922;-75
2021/04/11 04:37:50;;;;;;;;;7.25;6.25;;;;;;;;3511921;40;113878;-76
2021/04/11 04:40:24;;;;;;;;;9.25;8.75;;;;;;;;3510880;40;114109;-74
2021/04/11 04:42:54;;;;;;;;;10.25;8.25;;;;;;;;3513827;40;112006;-75
2021/04/11 04:45:25;;;;;;;;;8.50;8.50;;;;;;;;3512863;40;113048;-76
2021/04/11 04:47:54;;;;;;;;;9.00;9.00;;;;;;;;3512127;40;114032;-75
2021/04/11 04:50:22;;;;;;;;;8.75;8.00;;;;;;;;3513630;40;112024;-74
2021/04/11 04:52:57;;;;;;;;;10.50;10.50;;;;;;;;3515966;40;114582;-74
2021/04/11 04:55:26;;;;;;;;;8.00;8.00;;;;;;;;3512293;40;111824;-73
2021/04/11 04:57:54;;;;;;;;;7.25;7.25;;;;;;;;3514247;40;113268;-75
2021/04/11 05:00:23;;;;;;;;;9.50;8.75;;;;;;;;3511726;39;113715;-75
2021/04/11 05:02:51;;;;;;;;;9.50;8.00;;;;;;;;3514246;40;112014;-75
2021/04/11 05:05:19;;;;;;;;;8.00;8.00;;;;;;;;3514337;39;112679;-76
2021/04/11 05:07:48;;;;;;;;;8.00;8.00;;;;;;;;3513844;40;114338;-80
2021/04/11 05:10:16;;;;;;;;;10.50;8.50;;;;;;;;3514533;39;111991;-77
2021/04/11 05:12:46;;;;;;;;;9.75;9.00;;;;;;;;3514223;40;113239;-75
2021/04/11 05:15:14;;;;;;;;;8.25;8.25;;;;;;;;3516413;40;114276;-74
2021/04/11 05:17:43;;;;;;;;;11.75;9.50;;;;;;;;3514426;40;113529;-74
2021/04/11 05:20:11;;;;;;;;;12.25;11.50;;;;;;;;3513707;39;113821;-75
2021/04/11 05:22:40;;;;;;;;;12.00;12.00;;;;;;;;3514140;40;111957;-74
2021/04/11 05:25:09;;;;;;;;;13.00;12.00;;;;;;;;3514139;39;113510;-76
2021/04/11 05:27:39;;;;;;;;;12.00;9.75;;;;;;;;3513677;39;113819;-72
2021/04/11 05:30:09;;;;;;;;;12.00;10.25;;;;;;;;3513836;40;111899;-75
2021/04/11 05:32:35;;;;;;;;;11.25;11.25;;;;;;;;3511696;39;113150;-73
2021/04/11 05:35:03;;;;;;;;;11.25;11.00;;;;;;;;3510098;40;113910;-74
2021/04/11 05:37:32;;;;;;;;;8.25;8.25;;;;;;;;3516806;40;111941;-74
2021/04/11 05:40:02;;;;;;;;;14.25;9.25;;;;;;;;3511606;40;114097;-74
2021/04/11 05:42:31;;;;;;;;;10.00;9.50;;;;;;;;3514130;39;111924;-74
2021/04/11 05:44:59;;;;;;;;;9.25;9.25;;;;;;;;3514087;40;113831;-74
2021/04/11 05:47:30;;;;;;;;;10.00;10.00;;;;;;;;3509836;40;114142;-74
2021/04/11 05:49:59;;;;;;;;;11.25;10.00;;;;;;;;3512086;40;112402;-74
2021/04/11 05:52:31;;;;;;;;;11.00;9.00;;;;;;;;3512389;40;113968;-75
2021/04/11 05:54:58;;;;;;;;;13.00;13.00;;;;;;;;3511848;40;113875;-74
2021/04/11 05:57:27;;;;;;;;;11.25;10.00;;;;;;;;3516887;40;111847;-74
2021/04/11 05:59:57;;;;;;;;;12.25;12.00;;;;;;;;3511818;40;114002;-74
2021/04/11 06:02:38;;;;;;;;;12.00;10.00;;;;;;;;3512209;40;112022;-74
2021/04/11 06:05:07;;;;;;;;;10.75;9.75;;;;;;;;3512721;40;113826;-74
2021/04/11 06:07:36;;;;;;;;;10.50;10.00;;;;;;;;3513647;39;114099;-75
2021/04/11 06:10:05;;;;;;;;;9.50;9.25;;;;;;;;3514229;40;113364;-74
2021/04/11 06:12:34;;;;;;;;;14.25;13.00;;;;;;;;3514479;40;113272;-74
2021/04/11 06:15:02;;;;;;;;;6.25;6.25;;;;;;;;3514253;40;114113;-74
2021/04/11 06:17:29;;;;;;;;;9.25;9.25;;;;;;;;3514027;40;112370;-75
2021/04/11 06:19:56;;;;;;;;;13.00;9.00;;;;;;;;3516234;40;113478;-75
2021/04/11 06:22:25;;;;;;;;;12.00;12.00;;;;;;;;3512063;40;111796;-75
2021/04/11 06:24:54;;;;;;;;;10.50;9.00;;;;;;;;3513749;40;114405;-75
2021/04/11 06:27:28;;;;;;;;;12.00;9.25;;;;;;;;3513290;40;113806;-76
2021/04/11 06:29:57;;;;;;;;;10.75;9.25;;;;;;;;3511941;40;111982;-75
2021/04/11 06:32:26;;;;;;;;;12.00;10.00;;;;;;;;3511986;40;113127;-75
2021/04/11 06:34:56;;;;;;;;;8.50;8.50;;;;;;;;3511584;40;114072;-76
2021/04/11 06:37:22;;;;;;;;;12.75;10.25;;;;;;;;3511670;40;112377;-75
2021/04/11 06:39:49;;;;;;;;;9.25;9.25;;;;;;;;3513514;40;113330;-75
2021/04/11 06:42:25;;;;;;;;;10.25;9.25;;;;;;;;3515968;39;113911;-75
2021/04/11 06:45:10;;;;;;;;;12.75;10.00;;;;;;;;3511895;40;113275;-76
2021/04/11 06:47:51;;;;;;;;;11.00;9.25;;;;;;;;3513286;40;113852;-75
2021/04/11 06:50:24;;;;;;;;;8.75;8.00;;;;;;;;3493877;40;113178;-75
2021/04/11 06:52:58;;;;;;;;;8.25;8.25;;;;;;;;3511356;40;115559;-75
2021/04/11 06:55:34;;;;;;;;;8.00;7.25;;;;;;;;3511070;40;114077;-76
2021/04/11 06:58:06;;;;;;;;;9.00;8.50;;;;;;;;3511487;40;113636;-74
2021/04/11 07:00:40;;;;;;;;;7.25;7.25;;;;;;;;3513650;39;113316;-76
2021/04/11 07:03:25;;;;;;;;;8.50;8.50;;;;;;;;3512771;40;114237;-76
2021/04/11 07:06:12;;;;;;;;;8.75;7.50;;;;;;;;3515379;39;113307;-77
2021/04/11 07:08:56;;;;;;;;;7.75;7.75;;;;;;;;3496019;40;114137;-81
2021/04/11 07:11:40;;;;;;;;;13.75;10.50;;;;;;;;3512202;40;112113;-88
2021/04/11 07:14:25;;;;;;;;;10.00;9.00;;;;;;;;3514192;40;113185;-80
2021/04/11 07:17:04;;;;;;;;;12.75;10.00;;;;;;;;3512720;40;113993;-75
2021/04/11 07:19:48;;;;;;;;;15.00;10.00;;;;;;;;3511434;40;112695;-66
2021/04/11 07:22:32;;;;;;;;;9.50;8.50;;;;;;;;3512986;40;113191;-66
2021/04/11 07:25:14;;;;;;;;;9.75;9.00;;;;;;;;3512110;40;114103;-73
2021/04/11 07:27:50;;;;;;;;;8.25;8.00;;;;;;;;3513050;40;112323;-72
2021/04/11 07:30:25;;;;;;;;;10.00;9.00;;;;;;;;3515069;40;113629;-71
2021/04/11 07:33:13;;;;;;;;;10.50;9.00;;;;;;;;3509312;40;112883;-72
2021/04/11 07:35:48;;;;;;;;;9.75;9.75;;;;;;;;3511081;40;113680;-73
2021/04/11 07:38:35;;;;;;;;;6.75;6.00;;;;;;;;3512486;39;113894;-72
2021/04/11 07:41:05;;;;;;;;;10.50;8.75;;;;;;;;3507767;40;112868;-72
2021/04/11 07:43:38;;;;;;;;;8.75;8.00;;;;;;;;3513085;40;113652;-74
2021/04/11 07:46:10;;;;;;;;;10.00;9.00;;;;;;;;3512351;40;113907;-67
2021/04/11 07:48:53;;;;;;;;;8.75;8.25;;;;;;;;3512752;40;112625;-67
2021/04/11 07:51:31;;;;;;;;;7.75;7.75;;;;;;;;3491836;40;113341;-69
2021/04/11 07:54:14;;;;;;;;;8.25;8.25;;;;;;;;3514160;40;114416;-68
2021/04/11 07:56:49;;;;;;;;;9.75;9.00;;;;;;;;3513971;40;113258;-68
2021/04/11 07:59:30;;;;;;;;;8.25;8.25;;;;;;;;3513710;39;113958;-72
2021/04/11 08:02:09;;;;;;;;;8.00;8.00;;;;;;;;3510387;40;113131;-73
2021/04/11 08:04:45;;;;;;;;;8.50;8.50;;;;;;;;3514193;40;113365;-76
2021/04/11 08:07:18;;;;;;;;;9.00;7.00;;;;;;;;3513446;40;113915;-73
2021/04/11 08:09:49;;;;;;;;;8.50;8.25;;;;;;;;3513402;39;112778;-74
2021/04/11 08:12:29;;;;;;;;;9.00;8.00;;;;;;;;3513031;40;113238;-76
2021/04/11 08:15:01;;;;;;;;;9.00;8.00;;;;;;;;3513831;40;113902;-75
2021/04/11 08:17:38;;;;;;;;;8.00;7.75;;;;;;;;3512734;40;113393;-74
2021/04/11 08:20:30;;;;;;;;;8.00;8.00;;;;;;;;3512337;40;113983;-74
2021/04/11 08:23:26;;;;;;;;;10.00;10.00;;;;;;;;3502484;40;112449;-73
2021/04/11 08:25:57;;;;;;;;;8.00;8.00;;;;;;;;3466335;40;113497;-73
2021/04/11 08:28:50;;;;;;;;;11.00;10.00;;;;;;;;3501933;40;113992;-74
2021/04/11 08:31:24;;;;;;;;;7.00;7.00;;;;;;;;3512966;40;113145;-74
2021/04/11 08:34:11;;;;;;;;;7.75;7.00;;;;;;;;3512682;40;114234;-74
2021/04/11 08:36:51;;;;;;;;;4.75;3.75;;;;;;;;3511454;40;114138;-74
2021/04/11 08:39:35;;;;;;;;;6.50;4.25;;;;;;;;3515726;40;112028;-74
2021/04/11 08:42:12;;;;;;;;;4.25;4.00;;;;;;;;3512338;40;114582;-73
2021/04/11 08:44:49;;;;;;;;;4.00;4.00;;;;;;;;3510897;40;112438;-74
2021/04/11 08:47:23;;;;;;;;;16.00;14.00;;;;;;;;3511976;40;114389;-76
2021/04/11 08:49:52;;;;;;;;;14.50;14.00;;;;;;;;3511955;40;113955;-72
2021/04/11 08:52:27;;;;;;;;;7.25;4.00;;;;;;;;3513961;40;112297;-76
2021/04/11 08:54:57;;;;;;;;;6.00;4.75;;;;;;;;3509590;40;113468;-73
2021/04/11 08:57:40;;;;;;;;;4.00;3.00;;;;;;;;3510494;39;113875;-75
2021/04/11 09:00:09;;;;;;;;;6.00;4.00;;;;;;;;3512740;40;112863;-72
2021/04/11 09:02:50;;;;;;;;;4.50;4.50;;;;;;;;3516248;39;113691;-74
2021/04/11 09:05:22;;;;;;;;;4.00;4.00;;;;;;;;3514329;40;112232;-74
2021/04/11 09:07:56;;;;;;;;;3.00;3.00;;;;;;;;3514286;40;113761;-72
2021/04/11 09:10:30;;;;;;;;;5.00;3.75;;;;;;;;3511906;40;114439;-72
2021/04/11 09:13:03;;;;;;;;;4.00;4.00;;;;;;;;3512573;40;111711;-74
2021/04/11 09:15:34;;;;;;;;;3.00;3.00;;;;;;;;3512263;40;113316;-74
2021/04/11 09:18:20;;;;;;;;;4.50;4.50;;;;;;;;3513821;39;114092;-75
2021/04/11 09:20:58;;;;;;;;;6.50;5.00;;;;;;;;3514683;40;111837;-73
2021/04/11 09:23:33;;;;;;;;;7.75;6.50;;;;;;;;3512919;40;113335;-74
2021/04/11 09:26:05;;;;;;;;;11.00;8.50;;;;;;;;3514809;40;114840;-78
2021/04/11 09:28:42;;;;;;;;;8.00;7.25;;;;;;;;3514007;39;113037;-70
2021/04/11 09:31:32;;;;;;;;;8.00;6.00;;;;;;;;3510289;40;114246;-70
2021/04/11 09:34:16;;;;;;;;;7.75;7.00;;;;;;;;3513515;40;112517;-72
2021/04/11 09:36:47;;;;;;;;;10.50;9.75;;;;;;;;3511228;40;113301;-73
2021/04/11 09:39:36;;;;;;;;;17.50;12.25;;;;;;;;3511212;40;115760;-70
2021/04/11 09:42:10;;;;;;;;;9.75;9.75;;;;;;;;3502337;40;111965;-73
2021/04/11 09:45:06;;;;;;;;;7.00;7.00;;;;;;;;3512702;40;113669;-71
2021/04/11 09:47:38;;;;;;;;;8.50;8.00;;;;;;;;3474721;40;114746;-73
2021/04/11 09:50:19;;;;;;;;;8.00;8.00;;;;;;;;3507330;40;113036;-71
2021/04/11 09:53:02;;;;;;;;;8.00;8.00;;;;;;;;3509847;40;114151;-71
2021/04/11 09:55:31;;;;;;;;;9.00;7.00;;;;;;;;3511477;40;112279;-71
2021/04/11 09:58:15;;;;;;;;;7.50;4.00;;;;;;;;3511189;40;113574;-73
2021/04/11 10:00:44;;;;;;;;;8.00;8.00;;;;;;;;3512524;40;114180;-71
2021/04/11 10:03:22;;;;;;;;;5.00;4.00;;;;;;;;3513412;39;112201;-69
2021/04/11 10:05:53;;;;;;;;;4.00;4.00;;;;;;;;3511880;40;114043;-74
2021/04/11 10:08:26;;;;;;;;;5.00;4.00;;;;;;;;3509900;39;115394;-70
2021/04/11 10:11:00;;;;;;;;;4.25;4.25;;;;;;;;3511601;40;112255;-71
2021/04/11 10:13:47;;;;;;;;;4.00;4.00;;;;;;;;3514586;40;113970;-71
2021/04/11 10:16:20;;;;;;;;;3.00;3.00;;;;;;;;3507572;40;111986;-74
2021/04/11 10:18:59;;;;;;;;;3.25;3.25;;;;;;;;3513088;40;113905;-77
2021/04/11 10:22:05;;;;;;;;;4.00;3.00;;;;;;;;3549563;39;112162;-71
2021/04/11 10:24:38;;;;;;;;;6.00;4.00;;;;;;;;3544267;39;114091;-71
2021/04/11 10:27:10;;;;;;;;;2.25;2.25;;;;;;;;3544908;39;112394;-70
2021/04/11 10:29:37;;;;;;;;;2.00;2.00;;;;;;;;3544720;39;113297;-71
2021/04/11 10:32:08;;;;;;;;;4.00;3.00;;;;;;;;3545055;39;113582;-73
2021/04/11 10:34:37;;;;;;;;;3.00;3.00;;;;;;;;3543711;39;112652;-73
2021/04/11 10:37:07;;;;;;;;;1.75;1.75;;;;;;;;3543660;39;113249;-72
2021/04/11 10:39:42;;;;;;;;;6.50;5.00;;;;;;;;3546081;39;114072;-70
2021/04/11 10:42:15;;;;;;;;;3.25;2.50;;;;;;;;3548132;39;112047;-71
2021/04/11 10:44:48;;;;;;;;;4.00;4.00;;;;;;;;3545738;39;113861;-72
2021/04/11 10:47:30;;;;;;;;;2.00;2.00;;;;;;;;3546258;39;112164;-72
2021/04/11 10:50:03;;;;;;;;;3.00;3.00;;;;;;;;3547318;39;113160;-73
2021/04/11 10:52:39;;;;;;;;;2.25;2.25;;;;;;;;3544870;39;114072;-72
2021/04/11 10:55:13;;;;;;;;;8.00;8.00;;;;;;;;3542767;39;112585;-72
2021/04/11 10:57:58;;;;;;;;;3.00;3.00;;;;;;;;3544285;39;113163;-72
2021/04/11 11:00:29;;;;;;;;;3.25;2.00;;;;;;;;3546964;39;114127;-71
2021/04/11 11:03:16;;;;;;;;;4.75;3.50;;;;;;;;3547148;39;112033;-71
2021/04/11 11:06:02;;;;;;;;;3.00;2.00;;;;;;;;3548106;39;113266;-70
2021/04/11 11:08:38;;;;;;;;;1.00;1.00;;;;;;;;3547003;39;112037;-72
2021/04/11 11:11:20;;;;;;;;;1.00;1.00;;;;;;;;3544804;39;113318;-70
2021/04/11 11:14:02;;;;;;;;;1.00;1.00;;;;;;;;3545638;39;113965;-73
2021/04/11 11:16:32;;;;;;;;;2.00;2.00;;;;;;;;3547475;39;112162;-73
2021/04/11 11:19:12;;;;;;;;;3.00;2.00;;;;;;;;3545503;39;113239;-72
2021/04/11 11:21:44;;;;;;;;;3.00;3.00;;;;;;;;3547213;39;113841;-73
2021/04/11 11:24:20;;;;;;;;;1.00;1.00;;;;;;;;3546389;39;112359;-73
2021/04/11 11:26:57;;;;;;;;;1.75;1.75;;;;;;;;3542384;39;113440;-72
2021/04/11 11:29:38;;;;;;;;;2.75;2.00;;;;;;;;3550788;39;114168;-73
2021/04/11 11:32:06;;;;;;;;;1.00;1.00;;;;;;;;3540170;39;113496;-71
2021/04/11 11:34:48;;;;;;;;;1.25;1.00;;;;;;;;3539214;39;113546;-71
2021/04/11 11:37:31;;;;;;;;;1.50;1.50;;;;;;;;3538705;39;111789;-70
2021/04/11 11:40:03;;;;;;;;;2.00;2.00;;;;;;;;3537531;39;113824;-71
2021/04/11 11:42:34;;;;;;;;;1.00;1.00;;;;;;;;3537713;39;114310;-71
2021/04/11 11:45:15;;;;;;;;;1.25;1.00;;;;;;;;3538776;39;111891;-71
2021/04/11 11:47:48;;;;;;;;;2.00;2.00;;;;;;;;3538892;39;113265;-73
2021/04/11 11:50:17;;;;;;;;;2.00;1.00;;;;;;;;3536384;39;114008;-72
2021/04/11 11:52:46;;;;;;;;;2.75;2.75;;;;;;;;3541106;39;112060;-74
2021/04/11 11:55:16;;;;;;;;;2.00;2.00;;;;;;;;3536017;39;113938;-73
2021/04/11 11:57:45;;;;;;;;;2.00;2.00;;;;;;;;3541490;39;112276;-73
2021/04/11 12:00:16;;;;;;;;;2.25;2.25;;;;;;;;3538969;39;113191;-73
2021/04/11 12:02:49;;;;;;;;;3.00;3.00;;;;;;;;3538328;39;114382;-72
2021/04/11 12:05:18;;;;;;;;;3.00;3.00;;;;;;;;3538395;39;112453;-73
2021/04/11 12:07:47;;;;;;;;;2.00;2.00;;;;;;;;3538365;39;113217;-73
2021/04/11 12:10:27;;;;;;;;;1.25;1.25;;;;;;;;3538342;39;113721;-72
2021/04/11 12:12:58;;;;;;;;;2.25;2.25;;;;;;;;3538828;39;112062;-72
2021/04/11 12:15:27;;;;;;;;;2.00;2.00;;;;;;;;3540181;39;113501;-73
2021/04/11 12:17:57;;;;;;;;;1.00;1.00;;;;;;;;3539374;39;115869;-73
2021/04/11 12:20:27;;;;;;;;;2.00;2.00;;;;;;;;3537787;39;113981;-72
2021/04/11 12:22:58;;;;;;;;;2.00;1.00;;;;;;;;3537366;39;114174;-70
2021/04/11 12:25:26;;;;;;;;;2.75;2.00;;;;;;;;3538949;39;112002;-70
2021/04/11 12:27:52;;;;;;;;;2.75;2.75;;;;;;;;3540552;39;113270;-74
2021/04/11 12:30:27;;;;;;;;;2.00;2.00;;;;;;;;3537674;39;114158;-74
2021/04/11 12:32:56;;;;;;;;;2.50;2.50;;;;;;;;3538736;39;112344;-75
2021/04/11 12:35:26;;;;;;;;;1.75;1.75;;;;;;;;3537996;39;113362;-76
2021/04/11 12:38:04;;;;;;;;;1.00;1.00;;;;;;;;3540612;39;112181;-73
2021/04/11 12:40:33;;;;;;;;;1.50;1.50;;;;;;;;3539459;39;113336;-72
2021/04/11 12:43:06;;;;;;;;;1.25;1.25;;;;;;;;3536545;39;114049;-71
2021/04/11 12:45:38;;;;;;;;;1.75;1.75;;;;;;;;3539444;39;112143;-72
2021/04/11 12:48:08;;;;;;;;;1.00;1.00;;;;;;;;3537160;39;113519;-72
2021/04/11 12:50:35;;;;;;;;;1.00;1.00;;;;;;;;3538176;39;114048;-72
2021/04/11 12:53:06;;;;;;;;;2.75;1.00;;;;;;;;3535651;39;112979;-71
2021/04/11 12:55:37;;;;;;;;;0.00;0.00;;;;;;;;3539765;39;113552;-71
2021/04/11 12:58:06;;;;;;;;;0.00;0.00;;;;;;;;3539600;39;114468;-72
2021/04/11 13:00:33;;;;;;;;;1.00;1.00;;;;;;;;3537848;39;113483;-72
2021/04/11 13:03:04;;;;;;;;;0.00;0.00;;;;;;;;3536658;39;113640;-72
2021/04/11 13:05:32;;;;;;;;;0.25;0.25;;;;;;;;3539714;39;112158;-72
2021/04/11 13:08:03;;;;;;;;;1.00;1.00;;;;;;;;3537094;39;112835;-72
2021/04/11 13:10:31;;;;;;;;;1.25;0.75;;;;;;;;3539084;39;113984;-72
2021/04/11 13:13:02;;;;;;;;;1.00;1.00;;;;;;;;3539270;39;112748;-72
2021/04/11 13:15:31;;;;;;;;;1.00;1.00;;;;;;;;3537643;39;113158;-72
2021/04/11 13:18:02;;;;;;;;;1.00;1.00;;;;;;;;3539294;39;114096;-72
2021/04/11 13:20:31;;;;;;;;;1.00;1.00;;;;;;;;3542261;39;111970;-72
2021/04/11 13:23:01;;;;;;;;;0.00;0.00;;;;;;;;3538304;39;113974;-72
2021/04/11 13:25:33;;;;;;;;;0.00;0.00;;;;;;;;3541842;39;112158;-72
2021/04/11 13:28:04;;;;;;;;;0.75;0.00;;;;;;;;3538028;39;113185;-72
2021/04/11 13:30:32;;;;;;;;;1.00;1.00;;;;;;;;3537018;39;114943;-71
2021/04/11 13:33:00;;;;;;;;;0.75;0.75;;;;;;;;3539442;39;112509;-71
2021/04/11 13:35:29;;;;;;;;;1.00;1.00;;;;;;;;3566044;22;113592;-77
2021/04/11 13:37:56;;;;;;;;;2.00;1.00;;;;;;;;3527996;39;114144;-77
2021/04/11 13:40:24;;;;;;;;;2.00;1.00;;;;;;;;3527611;39;112534;-76
2021/04/11 13:43:09;;;;;;;;;1.00;1.00;;;;;;;;3530458;39;113276;-73
2021/04/11 13:45:39;;;;;;;;;0.75;0.75;;;;;;;;3527299;39;113555;-77
2021/04/11 13:48:19;;;;;;;;;1.00;1.00;;;;;;;;3528671;39;113356;-77
2021/04/11 13:50:50;;;;;;;;;2.00;1.00;;;;;;;;3527162;39;113995;-74
2021/04/11 13:53:25;;;;;;;;;2.75;2.00;;;;;;;;3527924;39;111766;-72
2021/04/11 13:55:56;;;;;;;;;4.50;3.00;;;;;;;;3527737;39;113326;-73
2021/04/11 13:58:26;;;;;;;;;1.25;1.25;;;;;;;;3526945;39;114156;-74
2021/04/11 14:00:58;;;;;;;;;1.00;1.00;;;;;;;;3527770;39;111790;-72
2021/04/11 14:03:28;;;;;;;;;3.25;3.00;;;;;;;;3528781;39;113309;-74
2021/04/11 14:05:56;;;;;;;;;2.00;2.00;;;;;;;;3532704;39;113831;-72
2021/04/11 14:08:27;;;;;;;;;5.75;4.75;;;;;;;;3530692;39;113685;-72
2021/04/11 14:10:57;;;;;;;;;4.00;4.00;;;;;;;;3528872;39;113790;-72
2021/04/11 14:13:27;;;;;;;;;2.00;2.00;;;;;;;;3530022;39;111843;-71
2021/04/11 14:15:58;;;;;;;;;3.00;3.00;;;;;;;;3527144;39;113584;-72
2021/04/11 14:18:31;;;;;;;;;2.00;2.00;;;;;;;;3527720;39;114179;-73
2021/04/11 14:20:59;;;;;;;;;3.25;3.25;;;;;;;;3526623;39;112459;-73
2021/04/11 14:23:32;;;;;;;;;2.00;2.00;;;;;;;;3528577;39;113858;-73
2021/04/11 14:26:02;;;;;;;;;2.50;2.50;;;;;;;;3527782;39;114877;-72
2021/04/11 14:28:33;;;;;;;;;2.00;2.00;;;;;;;;3533542;39;112187;-73
2021/04/11 14:31:11;;;;;;;;;4.25;3.00;;;;;;;;3526462;39;113911;-73
2021/04/11 14:33:41;;;;;;;;;2.25;2.00;;;;;;;;3526888;39;111789;-72
2021/04/11 14:36:10;;;;;;;;;2.25;2.25;;;;;;;;3528687;39;114544;-72
2021/04/11 14:38:41;;;;;;;;;3.00;2.50;;;;;;;;3525950;39;113860;-72
2021/04/11 14:41:09;;;;;;;;;4.50;4.50;;;;;;;;3530438;39;111860;-71
2021/04/11 14:43:38;;;;;;;;;4.00;4.00;;;;;;;;3530502;39;113412;-73
2021/04/11 14:46:07;;;;;;;;;4.00;3.00;;;;;;;;3529560;39;114043;-73
2021/04/11 14:48:35;;;;;;;;;3.25;3.25;;;;;;;;3531168;39;111979;-73
2021/04/11 14:51:14;;;;;;;;;6.25;3.50;;;;;;;;3528126;39;114094;-72
2021/04/11 14:53:46;;;;;;;;;8.25;5.50;;;;;;;;3529053;39;111880;-72